sensor_id;sensor_type;location;lat;lon;timestamp;P1;durP1;ratioP1;P2;durP2;ratioP2
8952;SDS011;4511;50.890;8.054;2023-05-17T00:00:54;4.13;;;3.20;;
8952;SDS011;4511;50.890;8.054;2023-05-17T00:03:22;7.57;;;3.50;;
8952;SDS011;4511;50.890;8.054;2023-05-17T00:05:49;4.73;;;3.53;;
8952;SDS011;4511;50.890;8.054;2023-05-17T00:08:17;7.03;;;3.80;;
8952;SDS011;4511;50.890;8.054;2023-05-17T00:10:43;6.10;;;3.70;;
8952;SDS011;4511;50.890;8.054;2023-05-17T00:13:10;7.83;;;3.73;;
8952;SDS011;4511;50.890;8.054;2023-05-17T00:15:38;4.43;;;3.93;;
8952;SDS011;4511;50.890;8.054;2023-05-17T00:18:05;5.33;;;3.70;;
8952;SDS011;4511;50.890;8.054;2023-05-17T00:20:31;6.20;;;4.03;;
8952;SDS011;4511;50.890;8.054;2023-05-17T00:22:58;7.20;;;4.30;;
8952;SDS011;4511;50.890;8.054;2023-05-17T00:25:25;6.97;;;4.27;;
8952;SDS011;4511;50.890;8.054;2023-05-17T00:27:52;7.77;;;4.00;;
8952;SDS011;4511;50.890;8.054;2023-05-17T00:30:19;6.60;;;4.17;;
8952;SDS011;4511;50.890;8.054;2023-05-17T00:32:47;5.90;;;4.10;;
8952;SDS011;4511;50.890;8.054;2023-05-17T00:35:14;6.53;;;3.97;;
8952;SDS011;4511;50.890;8.054;2023-05-17T00:37:40;6.17;;;3.87;;
8952;SDS011;4511;50.890;8.054;2023-05-17T00:40:12;5.87;;;4.03;;
8952;SDS011;4511;50.890;8.054;2023-05-17T00:42:40;7.43;;;3.80;;
8952;SDS011;4511;50.890;8.054;2023-05-17T00:45:07;5.97;;;4.20;;
8952;SDS011;4511;50.890;8.054;2023-05-17T00:47:34;6.73;;;4.13;;
8952;SDS011;4511;50.890;8.054;2023-05-17T00:50:02;5.37;;;3.43;;
8952;SDS011;4511;50.890;8.054;2023-05-17T00:52:30;7.80;;;3.73;;
8952;SDS011;4511;50.890;8.054;2023-05-17T00:54:56;5.33;;;3.90;;
8952;SDS011;4511;50.890;8.054;2023-05-17T00:57:24;4.50;;;3.73;;
8952;SDS011;4511;50.890;8.054;2023-05-17T00:59:50;6.43;;;3.77;;
8952;SDS011;4511;50.890;8.054;2023-05-17T01:02:19;7.60;;;3.83;;
8952;SDS011;4511;50.890;8.054;2023-05-17T01:04:46;5.37;;;3.83;;
8952;SDS011;4511;50.890;8.054;2023-05-17T01:07:14;6.73;;;4.10;;
8952;SDS011;4511;50.890;8.054;2023-05-17T01:09:41;7.60;;;4.60;;
8952;SDS011;4511;50.890;8.054;2023-05-17T01:12:10;7.87;;;4.10;;
8952;SDS011;4511;50.890;8.054;2023-05-17T01:14:46;7.20;;;4.40;;
8952;SDS011;4511;50.890;8.054;2023-05-17T01:17:23;5.10;;;3.57;;
8952;SDS011;4511;50.890;8.054;2023-05-17T01:20:00;4.77;;;3.60;;
8952;SDS011;4511;50.890;8.054;2023-05-17T01:22:35;4.50;;;3.77;;
8952;SDS011;4511;50.890;8.054;2023-05-17T01:25:20;5.57;;;3.70;;
8952;SDS011;4511;50.890;8.054;2023-05-17T01:27:57;6.83;;;4.20;;
8952;SDS011;4511;50.890;8.054;2023-05-17T01:30:26;5.33;;;3.80;;
8952;SDS011;4511;50.890;8.054;2023-05-17T01:32:55;5.93;;;4.10;;
8952;SDS011;4511;50.890;8.054;2023-05-17T01:35:23;6.13;;;4.37;;
8952;SDS011;4511;50.890;8.054;2023-05-17T01:37:50;9.03;;;4.30;;
8952;SDS011;4511;50.890;8.054;2023-05-17T01:40:17;7.30;;;4.23;;
8952;SDS011;4511;50.890;8.054;2023-05-17T01:42:44;7.50;;;4.00;;
8952;SDS011;4511;50.890;8.054;2023-05-17T01:45:20;5.83;;;4.00;;
8952;SDS011;4511;50.890;8.054;2023-05-17T01:47:52;6.97;;;4.07;;
8952;SDS011;4511;50.890;8.054;2023-05-17T01:50:27;8.87;;;4.20;;
8952;SDS011;4511;50.890;8.054;2023-05-17T01:52:58;5.00;;;3.90;;
8952;SDS011;4511;50.890;8.054;2023-05-17T01:55:29;10.57;;;4.60;;
8952;SDS011;4511;50.890;8.054;2023-05-17T01:58:02;7.47;;;4.20;;
8952;SDS011;4511;50.890;8.054;2023-05-17T02:00:33;7.03;;;4.30;;
8952;SDS011;4511;50.890;8.054;2023-05-17T02:03:03;6.87;;;4.20;;
8952;SDS011;4511;50.890;8.054;2023-05-17T02:05:30;7.10;;;4.23;;
8952;SDS011;4511;50.890;8.054;2023-05-17T02:07:57;7.80;;;4.63;;
8952;SDS011;4511;50.890;8.054;2023-05-17T02:10:23;4.97;;;4.13;;
8952;SDS011;4511;50.890;8.054;2023-05-17T02:12:50;7.73;;;4.27;;
8952;SDS011;4511;50.890;8.054;2023-05-17T02:15:17;7.20;;;4.37;;
8952;SDS011;4511;50.890;8.054;2023-05-17T02:17:45;7.47;;;4.20;;
8952;SDS011;4511;50.890;8.054;2023-05-17T02:20:12;7.27;;;4.43;;
8952;SDS011;4511;50.890;8.054;2023-05-17T02:22:39;6.30;;;3.93;;
8952;SDS011;4511;50.890;8.054;2023-05-17T02:25:06;7.17;;;4.00;;
8952;SDS011;4511;50.890;8.054;2023-05-17T02:27:33;5.03;;;4.10;;
8952;SDS011;4511;50.890;8.054;2023-05-17T02:30:01;9.77;;;4.13;;
8952;SDS011;4511;50.890;8.054;2023-05-17T02:32:28;5.53;;;4.00;;
8952;SDS011;4511;50.890;8.054;2023-05-17T02:34:56;6.37;;;4.00;;
8952;SDS011;4511;50.890;8.054;2023-05-17T02:37:23;8.40;;;4.10;;
8952;SDS011;4511;50.890;8.054;2023-05-17T02:39:56;8.87;;;4.30;;
8952;SDS011;4511;50.890;8.054;2023-05-17T02:42:23;7.30;;;4.30;;
8952;SDS011;4511;50.890;8.054;2023-05-17T02:44:50;6.73;;;4.43;;
8952;SDS011;4511;50.890;8.054;2023-05-17T02:47:20;6.57;;;3.83;;
8952;SDS011;4511;50.890;8.054;2023-05-17T02:49:47;6.87;;;4.20;;
8952;SDS011;4511;50.890;8.054;2023-05-17T02:52:15;6.83;;;4.53;;
8952;SDS011;4511;50.890;8.054;2023-05-17T02:54:42;5.50;;;3.90;;
8952;SDS011;4511;50.890;8.054;2023-05-17T02:57:09;7.40;;;4.57;;
8952;SDS011;4511;50.890;8.054;2023-05-17T02:59:35;7.40;;;3.90;;
8952;SDS011;4511;50.890;8.054;2023-05-17T03:02:02;8.83;;;4.50;;
8952;SDS011;4511;50.890;8.054;2023-05-17T03:04:30;7.73;;;4.30;;
8952;SDS011;4511;50.890;8.054;2023-05-17T03:06:57;6.27;;;4.70;;
8952;SDS011;4511;50.890;8.054;2023-05-17T03:09:25;8.27;;;4.63;;
8952;SDS011;4511;50.890;8.054;2023-05-17T03:11:53;7.97;;;4.00;;
8952;SDS011;4511;50.890;8.054;2023-05-17T03:14:20;6.47;;;4.20;;
8952;SDS011;4511;50.890;8.054;2023-05-17T03:16:47;8.00;;;4.50;;
8952;SDS011;4511;50.890;8.054;2023-05-17T03:19:14;8.53;;;4.57;;
8952;SDS011;4511;50.890;8.054;2023-05-17T03:21:40;6.13;;;4.50;;
8952;SDS011;4511;50.890;8.054;2023-05-17T03:24:07;5.97;;;4.00;;
8952;SDS011;4511;50.890;8.054;2023-05-17T03:26:35;7.27;;;4.70;;
8952;SDS011;4511;50.890;8.054;2023-05-17T03:29:02;5.97;;;4.03;;
8952;SDS011;4511;50.890;8.054;2023-05-17T03:31:29;6.37;;;4.20;;
8952;SDS011;4511;50.890;8.054;2023-05-17T03:33:55;6.43;;;4.30;;
8952;SDS011;4511;50.890;8.054;2023-05-17T03:36:22;7.43;;;4.50;;
8952;SDS011;4511;50.890;8.054;2023-05-17T03:38:49;8.17;;;4.03;;
8952;SDS011;4511;50.890;8.054;2023-05-17T03:41:16;8.67;;;4.70;;
8952;SDS011;4511;50.890;8.054;2023-05-17T03:43:44;7.33;;;4.40;;
8952;SDS011;4511;50.890;8.054;2023-05-17T03:46:10;7.33;;;4.27;;
8952;SDS011;4511;50.890;8.054;2023-05-17T03:48:38;5.43;;;4.70;;
8952;SDS011;4511;50.890;8.054;2023-05-17T03:51:05;8.47;;;4.63;;
8952;SDS011;4511;50.890;8.054;2023-05-17T03:53:32;8.87;;;4.70;;
8952;SDS011;4511;50.890;8.054;2023-05-17T03:55:58;6.30;;;5.13;;
8952;SDS011;4511;50.890;8.054;2023-05-17T03:58:25;8.60;;;4.80;;
8952;SDS011;4511;50.890;8.054;2023-05-17T04:00:53;9.53;;;4.97;;
8952;SDS011;4511;50.890;8.054;2023-05-17T04:03:20;7.83;;;4.53;;
8952;SDS011;4511;50.890;8.054;2023-05-17T04:05:47;6.60;;;4.40;;
8952;SDS011;4511;50.890;8.054;2023-05-17T04:08:14;5.13;;;4.03;;
8952;SDS011;4511;50.890;8.054;2023-05-17T04:10:41;6.33;;;4.53;;
8952;SDS011;4511;50.890;8.054;2023-05-17T04:13:08;8.60;;;5.10;;
8952;SDS011;4511;50.890;8.054;2023-05-17T04:15:35;9.53;;;5.20;;
8952;SDS011;4511;50.890;8.054;2023-05-17T04:18:03;8.87;;;5.63;;
8952;SDS011;4511;50.890;8.054;2023-05-17T04:20:30;9.23;;;5.07;;
8952;SDS011;4511;50.890;8.054;2023-05-17T04:22:57;8.53;;;5.00;;
8952;SDS011;4511;50.890;8.054;2023-05-17T04:25:24;10.07;;;4.77;;
8952;SDS011;4511;50.890;8.054;2023-05-17T04:27:51;18.03;;;6.10;;
8952;SDS011;4511;50.890;8.054;2023-05-17T04:30:18;9.17;;;5.53;;
8952;SDS011;4511;50.890;8.054;2023-05-17T04:32:47;8.17;;;5.77;;
8952;SDS011;4511;50.890;8.054;2023-05-17T04:35:16;11.47;;;6.07;;
8952;SDS011;4511;50.890;8.054;2023-05-17T04:37:43;13.37;;;5.87;;
8952;SDS011;4511;50.890;8.054;2023-05-17T04:40:10;10.27;;;5.60;;
8952;SDS011;4511;50.890;8.054;2023-05-17T04:42:38;11.27;;;5.80;;
8952;SDS011;4511;50.890;8.054;2023-05-17T04:45:05;15.90;;;6.00;;
8952;SDS011;4511;50.890;8.054;2023-05-17T04:47:40;15.70;;;5.87;;
8952;SDS011;4511;50.890;8.054;2023-05-17T04:50:07;10.43;;;5.80;;
8952;SDS011;4511;50.890;8.054;2023-05-17T04:52:35;13.57;;;5.77;;
8952;SDS011;4511;50.890;8.054;2023-05-17T04:55:02;15.53;;;6.20;;
8952;SDS011;4511;50.890;8.054;2023-05-17T04:57:30;11.50;;;5.63;;
8952;SDS011;4511;50.890;8.054;2023-05-17T04:59:56;11.70;;;5.80;;
8952;SDS011;4511;50.890;8.054;2023-05-17T05:02:23;10.73;;;5.97;;
8952;SDS011;4511;50.890;8.054;2023-05-17T05:04:50;12.93;;;6.13;;
8952;SDS011;4511;50.890;8.054;2023-05-17T05:07:17;9.03;;;5.40;;
8952;SDS011;4511;50.890;8.054;2023-05-17T05:09:45;11.27;;;5.53;;
8952;SDS011;4511;50.890;8.054;2023-05-17T05:12:12;12.80;;;6.57;;
8952;SDS011;4511;50.890;8.054;2023-05-17T05:14:38;8.80;;;6.00;;
8952;SDS011;4511;50.890;8.054;2023-05-17T05:17:05;12.30;;;6.70;;
8952;SDS011;4511;50.890;8.054;2023-05-17T05:19:32;13.60;;;6.37;;
8952;SDS011;4511;50.890;8.054;2023-05-17T05:21:59;12.67;;;6.60;;
8952;SDS011;4511;50.890;8.054;2023-05-17T05:24:25;11.70;;;7.03;;
8952;SDS011;4511;50.890;8.054;2023-05-17T05:26:53;13.23;;;6.50;;
8952;SDS011;4511;50.890;8.054;2023-05-17T05:29:20;12.47;;;6.83;;
8952;SDS011;4511;50.890;8.054;2023-05-17T05:31:47;13.17;;;7.03;;
8952;SDS011;4511;50.890;8.054;2023-05-17T05:34:14;11.20;;;6.90;;
8952;SDS011;4511;50.890;8.054;2023-05-17T05:36:41;11.97;;;6.93;;
8952;SDS011;4511;50.890;8.054;2023-05-17T05:39:08;13.27;;;7.17;;
8952;SDS011;4511;50.890;8.054;2023-05-17T05:41:34;14.87;;;7.33;;
8952;SDS011;4511;50.890;8.054;2023-05-17T05:44:03;14.03;;;7.37;;
8952;SDS011;4511;50.890;8.054;2023-05-17T05:46:30;12.70;;;7.60;;
8952;SDS011;4511;50.890;8.054;2023-05-17T05:48:57;15.10;;;8.07;;
8952;SDS011;4511;50.890;8.054;2023-05-17T05:51:23;12.53;;;7.70;;
8952;SDS011;4511;50.890;8.054;2023-05-17T05:53:50;12.93;;;7.53;;
8952;SDS011;4511;50.890;8.054;2023-05-17T05:56:17;14.17;;;7.13;;
8952;SDS011;4511;50.890;8.054;2023-05-17T05:58:45;13.50;;;7.40;;
8952;SDS011;4511;50.890;8.054;2023-05-17T06:01:13;14.10;;;6.90;;
8952;SDS011;4511;50.890;8.054;2023-05-17T06:03:40;11.83;;;7.90;;
8952;SDS011;4511;50.890;8.054;2023-05-17T06:06:06;15.33;;;7.90;;
8952;SDS011;4511;50.890;8.054;2023-05-17T06:08:34;10.87;;;6.63;;
8952;SDS011;4511;50.890;8.054;2023-05-17T06:11:00;14.43;;;7.10;;
8952;SDS011;4511;50.890;8.054;2023-05-17T06:13:27;11.47;;;7.30;;
8952;SDS011;4511;50.890;8.054;2023-05-17T06:15:54;12.50;;;7.47;;
8952;SDS011;4511;50.890;8.054;2023-05-17T06:18:23;12.87;;;7.47;;
8952;SDS011;4511;50.890;8.054;2023-05-17T06:20:49;13.53;;;7.20;;
8952;SDS011;4511;50.890;8.054;2023-05-17T06:23:16;10.63;;;5.97;;
8952;SDS011;4511;50.890;8.054;2023-05-17T06:25:43;13.93;;;6.87;;
8952;SDS011;4511;50.890;8.054;2023-05-17T06:28:09;12.63;;;6.00;;
8952;SDS011;4511;50.890;8.054;2023-05-17T06:30:36;10.50;;;5.37;;
8952;SDS011;4511;50.890;8.054;2023-05-17T06:33:03;11.47;;;5.90;;
8952;SDS011;4511;50.890;8.054;2023-05-17T06:35:31;11.33;;;5.80;;
8952;SDS011;4511;50.890;8.054;2023-05-17T06:37:58;10.60;;;4.77;;
8952;SDS011;4511;50.890;8.054;2023-05-17T06:40:24;6.67;;;4.53;;
8952;SDS011;4511;50.890;8.054;2023-05-17T06:42:51;10.97;;;4.60;;
8952;SDS011;4511;50.890;8.054;2023-05-17T06:45:18;8.07;;;4.13;;
8952;SDS011;4511;50.890;8.054;2023-05-17T06:47:45;8.77;;;3.63;;
8952;SDS011;4511;50.890;8.054;2023-05-17T06:50:12;4.07;;;2.90;;
8952;SDS011;4511;50.890;8.054;2023-05-17T06:52:41;8.43;;;3.10;;
8952;SDS011;4511;50.890;8.054;2023-05-17T06:55:07;8.17;;;3.30;;
8952;SDS011;4511;50.890;8.054;2023-05-17T06:57:34;4.80;;;3.33;;
8952;SDS011;4511;50.890;8.054;2023-05-17T07:00:01;6.40;;;3.27;;
8952;SDS011;4511;50.890;8.054;2023-05-17T07:02:30;9.70;;;3.33;;
8952;SDS011;4511;50.890;8.054;2023-05-17T07:04:57;10.10;;;3.40;;
8952;SDS011;4511;50.890;8.054;2023-05-17T07:07:24;5.80;;;3.20;;
8952;SDS011;4511;50.890;8.054;2023-05-17T07:09:52;5.60;;;2.90;;
8952;SDS011;4511;50.890;8.054;2023-05-17T07:12:19;6.47;;;3.00;;
8952;SDS011;4511;50.890;8.054;2023-05-17T07:14:46;6.50;;;3.10;;
8952;SDS011;4511;50.890;8.054;2023-05-17T07:17:12;6.43;;;2.60;;
8952;SDS011;4511;50.890;8.054;2023-05-17T07:19:39;12.47;;;3.23;;
8952;SDS011;4511;50.890;8.054;2023-05-17T07:22:06;6.50;;;2.80;;
8952;SDS011;4511;50.890;8.054;2023-05-17T07:24:33;7.53;;;3.10;;
8952;SDS011;4511;50.890;8.054;2023-05-17T07:27:02;6.27;;;2.77;;
8952;SDS011;4511;50.890;8.054;2023-05-17T07:29:29;4.33;;;2.67;;
8952;SDS011;4511;50.890;8.054;2023-05-17T07:31:55;6.17;;;2.83;;
8952;SDS011;4511;50.890;8.054;2023-05-17T07:34:22;5.70;;;2.83;;
8952;SDS011;4511;50.890;8.054;2023-05-17T07:36:49;7.00;;;3.17;;
8952;SDS011;4511;50.890;8.054;2023-05-17T07:39:16;7.10;;;3.07;;
8952;SDS011;4511;50.890;8.054;2023-05-17T07:41:42;10.77;;;3.10;;
8952;SDS011;4511;50.890;8.054;2023-05-17T07:44:10;5.73;;;2.87;;
8952;SDS011;4511;50.890;8.054;2023-05-17T07:46:37;8.57;;;3.10;;
8952;SDS011;4511;50.890;8.054;2023-05-17T07:49:04;9.10;;;3.13;;
8952;SDS011;4511;50.890;8.054;2023-05-17T07:51:31;5.57;;;2.90;;
8952;SDS011;4511;50.890;8.054;2023-05-17T07:53:57;6.67;;;2.80;;
8952;SDS011;4511;50.890;8.054;2023-05-17T07:56:27;8.83;;;3.03;;
8952;SDS011;4511;50.890;8.054;2023-05-17T07:58:53;7.13;;;3.10;;
8952;SDS011;4511;50.890;8.054;2023-05-17T08:01:23;8.57;;;3.07;;
8952;SDS011;4511;50.890;8.054;2023-05-17T08:03:49;8.00;;;3.17;;
8952;SDS011;4511;50.890;8.054;2023-05-17T08:06:16;7.27;;;2.90;;
8952;SDS011;4511;50.890;8.054;2023-05-17T08:08:43;8.47;;;3.13;;
8952;SDS011;4511;50.890;8.054;2023-05-17T08:11:10;5.23;;;2.57;;
8952;SDS011;4511;50.890;8.054;2023-05-17T08:13:38;4.40;;;2.57;;
8952;SDS011;4511;50.890;8.054;2023-05-17T08:16:05;11.43;;;5.53;;
8952;SDS011;4511;50.890;8.054;2023-05-17T08:18:35;5.93;;;2.70;;
8952;SDS011;4511;50.890;8.054;2023-05-17T08:21:02;9.20;;;3.00;;
8952;SDS011;4511;50.890;8.054;2023-05-17T08:23:28;6.27;;;2.93;;
8952;SDS011;4511;50.890;8.054;2023-05-17T08:25:56;9.60;;;2.80;;
8952;SDS011;4511;50.890;8.054;2023-05-17T08:28:23;8.67;;;3.13;;
8952;SDS011;4511;50.890;8.054;2023-05-17T08:30:49;8.43;;;3.10;;
8952;SDS011;4511;50.890;8.054;2023-05-17T08:33:16;6.70;;;2.50;;
8952;SDS011;4511;50.890;8.054;2023-05-17T08:35:46;6.57;;;2.83;;
8952;SDS011;4511;50.890;8.054;2023-05-17T08:38:13;6.43;;;2.77;;
8952;SDS011;4511;50.890;8.054;2023-05-17T08:40:39;8.73;;;3.03;;
8952;SDS011;4511;50.890;8.054;2023-05-17T08:43:06;6.80;;;2.80;;
8952;SDS011;4511;50.890;8.054;2023-05-17T08:45:36;8.57;;;3.17;;
8952;SDS011;4511;50.890;8.054;2023-05-17T08:48:04;6.03;;;2.70;;
8952;SDS011;4511;50.890;8.054;2023-05-17T08:50:32;9.50;;;2.80;;
8952;SDS011;4511;50.890;8.054;2023-05-17T08:53:00;7.67;;;2.77;;
8952;SDS011;4511;50.890;8.054;2023-05-17T08:55:27;8.67;;;3.07;;
8952;SDS011;4511;50.890;8.054;2023-05-17T08:57:58;8.63;;;2.93;;
8952;SDS011;4511;50.890;8.054;2023-05-17T09:00:26;5.10;;;2.67;;
8952;SDS011;4511;50.890;8.054;2023-05-17T09:02:53;10.20;;;2.77;;
8952;SDS011;4511;50.890;8.054;2023-05-17T09:05:20;5.80;;;2.60;;
8952;SDS011;4511;50.890;8.054;2023-05-17T09:07:47;7.40;;;2.60;;
8952;SDS011;4511;50.890;8.054;2023-05-17T09:10:15;6.03;;;2.70;;
8952;SDS011;4511;50.890;8.054;2023-05-17T09:12:43;5.90;;;2.93;;
8952;SDS011;4511;50.890;8.054;2023-05-17T09:15:13;6.47;;;2.37;;
8952;SDS011;4511;50.890;8.054;2023-05-17T09:17:41;7.93;;;2.80;;
8952;SDS011;4511;50.890;8.054;2023-05-17T09:20:18;5.20;;;2.60;;
8952;SDS011;4511;50.890;8.054;2023-05-17T09:22:48;6.93;;;2.90;;
8952;SDS011;4511;50.890;8.054;2023-05-17T09:25:19;9.53;;;3.30;;
8952;SDS011;4511;50.890;8.054;2023-05-17T09:27:54;5.90;;;2.77;;
8952;SDS011;4511;50.890;8.054;2023-05-17T09:30:32;5.67;;;2.87;;
8952;SDS011;4511;50.890;8.054;2023-05-17T09:33:06;5.43;;;2.73;;
8952;SDS011;4511;50.890;8.054;2023-05-17T09:35:35;7.00;;;2.60;;
8952;SDS011;4511;50.890;8.054;2023-05-17T09:38:04;6.03;;;2.30;;
8952;SDS011;4511;50.890;8.054;2023-05-17T09:40:34;6.87;;;2.63;;
8952;SDS011;4511;50.890;8.054;2023-05-17T09:43:04;6.47;;;2.80;;
8952;SDS011;4511;50.890;8.054;2023-05-17T09:45:30;5.63;;;2.47;;
8952;SDS011;4511;50.890;8.054;2023-05-17T09:48:02;8.83;;;3.10;;
8952;SDS011;4511;50.890;8.054;2023-05-17T09:50:41;8.70;;;2.83;;
8952;SDS011;4511;50.890;8.054;2023-05-17T09:53:20;8.20;;;2.97;;
8952;SDS011;4511;50.890;8.054;2023-05-17T09:55:53;6.80;;;2.60;;
8952;SDS011;4511;50.890;8.054;2023-05-17T09:58:22;7.13;;;2.93;;
8952;SDS011;4511;50.890;8.054;2023-05-17T10:00:51;8.90;;;2.83;;
8952;SDS011;4511;50.890;8.054;2023-05-17T10:03:19;4.33;;;2.57;;
8952;SDS011;4511;50.890;8.054;2023-05-17T10:05:46;7.40;;;2.70;;
8952;SDS011;4511;50.890;8.054;2023-05-17T10:08:16;9.37;;;2.80;;
8952;SDS011;4511;50.890;8.054;2023-05-17T10:10:45;6.67;;;2.90;;
8952;SDS011;4511;50.890;8.054;2023-05-17T10:13:15;6.33;;;2.70;;
8952;SDS011;4511;50.890;8.054;2023-05-17T10:15:46;5.73;;;2.77;;
8952;SDS011;4511;50.890;8.054;2023-05-17T10:18:13;7.83;;;2.73;;
8952;SDS011;4511;50.890;8.054;2023-05-17T10:20:42;5.57;;;2.80;;
8952;SDS011;4511;50.890;8.054;2023-05-17T10:23:09;7.23;;;3.17;;
8952;SDS011;4511;50.890;8.054;2023-05-17T10:25:37;6.57;;;2.50;;
8952;SDS011;4511;50.890;8.054;2023-05-17T10:28:04;9.50;;;2.80;;
8952;SDS011;4511;50.890;8.054;2023-05-17T10:30:33;6.20;;;2.60;;
8952;SDS011;4511;50.890;8.054;2023-05-17T10:33:01;8.40;;;2.60;;
8952;SDS011;4511;50.890;8.054;2023-05-17T10:35:29;6.53;;;2.63;;
8952;SDS011;4511;50.890;8.054;2023-05-17T10:37:58;7.10;;;2.43;;
8952;SDS011;4511;50.890;8.054;2023-05-17T10:40:25;4.67;;;2.47;;
8952;SDS011;4511;50.890;8.054;2023-05-17T10:42:54;8.17;;;2.57;;
8952;SDS011;4511;50.890;8.054;2023-05-17T10:45:22;5.83;;;2.40;;
8952;SDS011;4511;50.890;8.054;2023-05-17T10:47:52;3.67;;;2.20;;
8952;SDS011;4511;50.890;8.054;2023-05-17T10:50:23;3.87;;;2.20;;
8952;SDS011;4511;50.890;8.054;2023-05-17T10:52:51;4.60;;;2.90;;
8952;SDS011;4511;50.890;8.054;2023-05-17T10:55:20;6.70;;;2.50;;
8952;SDS011;4511;50.890;8.054;2023-05-17T10:58:07;7.97;;;2.60;;
8952;SDS011;4511;50.890;8.054;2023-05-17T11:00:41;4.47;;;2.20;;
8952;SDS011;4511;50.890;8.054;2023-05-17T11:03:11;6.87;;;2.53;;
8952;SDS011;4511;50.890;8.054;2023-05-17T11:05:43;5.67;;;2.37;;
8952;SDS011;4511;50.890;8.054;2023-05-17T11:08:30;4.97;;;2.07;;
8952;SDS011;4511;50.890;8.054;2023-05-17T11:11:07;6.27;;;2.40;;
8952;SDS011;4511;50.890;8.054;2023-05-17T11:13:42;7.57;;;2.50;;
8952;SDS011;4511;50.890;8.054;2023-05-17T11:16:12;7.40;;;2.40;;
8952;SDS011;4511;50.890;8.054;2023-05-17T11:18:48;5.57;;;2.60;;
8952;SDS011;4511;50.890;8.054;2023-05-17T11:21:16;5.57;;;2.50;;
8952;SDS011;4511;50.890;8.054;2023-05-17T11:23:43;6.03;;;2.50;;
8952;SDS011;4511;50.890;8.054;2023-05-17T11:26:11;7.10;;;2.50;;
8952;SDS011;4511;50.890;8.054;2023-05-17T11:28:45;3.60;;;1.90;;
8952;SDS011;4511;50.890;8.054;2023-05-17T11:31:12;6.10;;;2.13;;
8952;SDS011;4511;50.890;8.054;2023-05-17T11:33:41;5.10;;;2.30;;
8952;SDS011;4511;50.890;8.054;2023-05-17T11:36:14;5.13;;;2.47;;
8952;SDS011;4511;50.890;8.054;2023-05-17T11:38:46;3.63;;;2.17;;
8952;SDS011;4511;50.890;8.054;2023-05-17T11:41:15;4.90;;;2.40;;
8952;SDS011;4511;50.890;8.054;2023-05-17T11:43:44;6.23;;;2.70;;
8952;SDS011;4511;50.890;8.054;2023-05-17T11:46:16;8.10;;;2.30;;
8952;SDS011;4511;50.890;8.054;2023-05-17T11:48:45;9.80;;;2.53;;
8952;SDS011;4511;50.890;8.054;2023-05-17T11:51:13;4.23;;;2.27;;
8952;SDS011;4511;50.890;8.054;2023-05-17T11:53:41;6.03;;;2.63;;
8952;SDS011;4511;50.890;8.054;2023-05-17T11:56:08;6.03;;;2.40;;
8952;SDS011;4511;50.890;8.054;2023-05-17T11:58:35;6.50;;;2.27;;
8952;SDS011;4511;50.890;8.054;2023-05-17T12:01:02;6.43;;;2.50;;
8952;SDS011;4511;50.890;8.054;2023-05-17T12:03:31;3.93;;;2.10;;
8952;SDS011;4511;50.890;8.054;2023-05-17T12:06:02;4.67;;;2.10;;
8952;SDS011;4511;50.890;8.054;2023-05-17T12:08:32;6.33;;;2.20;;
8952;SDS011;4511;50.890;8.054;2023-05-17T12:10:59;6.03;;;2.27;;
8952;SDS011;4511;50.890;8.054;2023-05-17T12:13:27;4.57;;;2.00;;
8952;SDS011;4511;50.890;8.054;2023-05-17T12:15:55;5.33;;;2.70;;
8952;SDS011;4511;50.890;8.054;2023-05-17T12:18:32;4.57;;;2.30;;
8952;SDS011;4511;50.890;8.054;2023-05-17T12:21:01;5.27;;;2.40;;
8952;SDS011;4511;50.890;8.054;2023-05-17T12:23:29;3.23;;;2.03;;
8952;SDS011;4511;50.890;8.054;2023-05-17T12:26:10;3.73;;;2.20;;
8952;SDS011;4511;50.890;8.054;2023-05-17T12:28:38;3.00;;;2.07;;
8952;SDS011;4511;50.890;8.054;2023-05-17T12:31:08;5.50;;;2.50;;
8952;SDS011;4511;50.890;8.054;2023-05-17T12:33:37;6.90;;;2.60;;
8952;SDS011;4511;50.890;8.054;2023-05-17T12:36:06;8.00;;;2.27;;
8952;SDS011;4511;50.890;8.054;2023-05-17T12:38:34;6.57;;;2.40;;
8952;SDS011;4511;50.890;8.054;2023-05-17T12:41:03;3.60;;;1.93;;
8952;SDS011;4511;50.890;8.054;2023-05-17T12:43:33;5.70;;;2.27;;
8952;SDS011;4511;50.890;8.054;2023-05-17T12:46:04;5.40;;;2.10;;
8952;SDS011;4511;50.890;8.054;2023-05-17T12:48:32;7.17;;;2.13;;
8952;SDS011;4511;50.890;8.054;2023-05-17T12:51:09;5.57;;;2.27;;
8952;SDS011;4511;50.890;8.054;2023-05-17T12:53:37;8.73;;;2.20;;
8952;SDS011;4511;50.890;8.054;2023-05-17T12:56:05;5.87;;;2.33;;
8952;SDS011;4511;50.890;8.054;2023-05-17T12:58:33;8.00;;;2.43;;
8952;SDS011;4511;50.890;8.054;2023-05-17T13:01:01;5.43;;;2.27;;
8952;SDS011;4511;50.890;8.054;2023-05-17T13:03:30;3.97;;;2.23;;
8952;SDS011;4511;50.890;8.054;2023-05-17T13:06:01;5.83;;;2.30;;
8952;SDS011;4511;50.890;8.054;2023-05-17T13:08:31;7.77;;;2.30;;
8952;SDS011;4511;50.890;8.054;2023-05-17T13:11:05;5.33;;;2.30;;
8952;SDS011;4511;50.890;8.054;2023-05-17T13:13:36;5.67;;;2.30;;
8952;SDS011;4511;50.890;8.054;2023-05-17T13:16:05;6.13;;;2.30;;
8952;SDS011;4511;50.890;8.054;2023-05-17T13:21:15;6.13;;;2.30;;
8952;SDS011;4511;50.890;8.054;2023-05-17T13:23:44;4.93;;;2.37;;
8952;SDS011;4511;50.890;8.054;2023-05-17T13:26:12;6.57;;;2.43;;
8952;SDS011;4511;50.890;8.054;2023-05-17T13:28:41;5.03;;;2.43;;
8952;SDS011;4511;50.890;8.054;2023-05-17T13:31:08;4.37;;;2.27;;
8952;SDS011;4511;50.890;8.054;2023-05-17T13:33:34;7.53;;;2.40;;
8952;SDS011;4511;50.890;8.054;2023-05-17T13:36:01;4.27;;;2.50;;
8952;SDS011;4511;50.890;8.054;2023-05-17T13:38:28;5.83;;;2.60;;
8952;SDS011;4511;50.890;8.054;2023-05-17T13:40:55;5.93;;;2.70;;
8952;SDS011;4511;50.890;8.054;2023-05-17T13:43:21;5.00;;;2.43;;
8952;SDS011;4511;50.890;8.054;2023-05-17T13:45:50;10.20;;;2.53;;
8952;SDS011;4511;50.890;8.054;2023-05-17T13:48:21;4.13;;;2.20;;
8952;SDS011;4511;50.890;8.054;2023-05-17T13:50:50;3.60;;;2.30;;
8952;SDS011;4511;50.890;8.054;2023-05-17T13:53:18;7.03;;;2.50;;
8952;SDS011;4511;50.890;8.054;2023-05-17T13:55:45;3.50;;;2.13;;
8952;SDS011;4511;50.890;8.054;2023-05-17T13:58:12;5.87;;;2.43;;
8952;SDS011;4511;50.890;8.054;2023-05-17T14:00:41;6.43;;;2.40;;
8952;SDS011;4511;50.890;8.054;2023-05-17T14:03:10;5.63;;;2.40;;
8952;SDS011;4511;50.890;8.054;2023-05-17T14:05:38;4.83;;;2.50;;
8952;SDS011;4511;50.890;8.054;2023-05-17T14:08:05;6.73;;;2.73;;
8952;SDS011;4511;50.890;8.054;2023-05-17T14:10:32;5.97;;;2.30;;
8952;SDS011;4511;50.890;8.054;2023-05-17T14:12:59;7.47;;;2.70;;
8952;SDS011;4511;50.890;8.054;2023-05-17T14:15:26;4.90;;;2.60;;
8952;SDS011;4511;50.890;8.054;2023-05-17T14:17:53;6.70;;;2.60;;
8952;SDS011;4511;50.890;8.054;2023-05-17T14:20:21;5.90;;;2.50;;
8952;SDS011;4511;50.890;8.054;2023-05-17T14:22:49;6.80;;;2.60;;
8952;SDS011;4511;50.890;8.054;2023-05-17T14:25:16;7.60;;;2.50;;
8952;SDS011;4511;50.890;8.054;2023-05-17T14:27:42;5.90;;;2.50;;
8952;SDS011;4511;50.890;8.054;2023-05-17T14:30:10;4.60;;;2.40;;
8952;SDS011;4511;50.890;8.054;2023-05-17T14:32:37;5.07;;;2.30;;
8952;SDS011;4511;50.890;8.054;2023-05-17T14:35:05;5.07;;;2.60;;
8952;SDS011;4511;50.890;8.054;2023-05-17T14:37:33;7.53;;;2.77;;
8952;SDS011;4511;50.890;8.054;2023-05-17T14:40:00;7.93;;;2.50;;
8952;SDS011;4511;50.890;8.054;2023-05-17T14:42:30;8.00;;;2.70;;
8952;SDS011;4511;50.890;8.054;2023-05-17T14:44:57;5.23;;;2.63;;
8952;SDS011;4511;50.890;8.054;2023-05-17T14:47:24;6.57;;;2.77;;
8952;SDS011;4511;50.890;8.054;2023-05-17T14:49:51;5.43;;;2.40;;
8952;SDS011;4511;50.890;8.054;2023-05-17T14:52:17;5.70;;;2.80;;
8952;SDS011;4511;50.890;8.054;2023-05-17T14:54:46;7.50;;;2.77;;
8952;SDS011;4511;50.890;8.054;2023-05-17T14:57:12;5.73;;;2.73;;
8952;SDS011;4511;50.890;8.054;2023-05-17T14:59:39;5.17;;;2.70;;
8952;SDS011;4511;50.890;8.054;2023-05-17T15:02:08;5.30;;;2.83;;
8952;SDS011;4511;50.890;8.054;2023-05-17T15:04:35;7.07;;;2.80;;
8952;SDS011;4511;50.890;8.054;2023-05-17T15:07:02;5.53;;;2.63;;
8952;SDS011;4511;50.890;8.054;2023-05-17T15:09:29;7.13;;;2.73;;
8952;SDS011;4511;50.890;8.054;2023-05-17T15:11:58;6.03;;;2.70;;
8952;SDS011;4511;50.890;8.054;2023-05-17T15:14:25;6.10;;;2.60;;
8952;SDS011;4511;50.890;8.054;2023-05-17T15:16:51;3.33;;;2.50;;
8952;SDS011;4511;50.890;8.054;2023-05-17T15:19:18;6.27;;;2.97;;
8952;SDS011;4511;50.890;8.054;2023-05-17T15:21:46;7.30;;;2.70;;